Time;durP1;ratioP1;P1;durP2;ratioP2;P2;SDS_P1;SDS_P2;PMS_P1;PMS_P2;Temp;Humidity;BMP_temperature;BMP_pressure;BME280_temperature;BME280_humidity;BME280_pressure;Samples;Min_cycle;Max_cycle;Signal;HPM_P1;HPM_P2
2021/03/19 00:01:09;;;;;;;4.97;3.90;;;4.20;99.90;;;;;;5072703;28;20024;-71
2021/03/19 00:03:35;;;;;;;6.60;4.25;;;4.10;99.90;;;;;;5072685;28;20103;-71
2021/03/19 00:06:01;;;;;;;8.27;4.70;;;4.10;99.90;;;;;;5072023;28;20120;-71
2021/03/19 00:08:27;;;;;;;7.38;4.35;;;4.10;99.90;;;;;;5064802;28;20082;-71
2021/03/19 00:10:53;;;;;;;7.43;4.43;;;4.00;99.90;;;;;;5051710;28;20423;-71
2021/03/19 00:13:19;;;;;;;7.25;4.85;;;4.00;99.90;;;;;;5052961;28;20025;-71
2021/03/19 00:15:45;;;;;;;8.70;4.38;;;4.10;99.90;;;;;;5051749;28;20022;-71
2021/03/19 00:18:11;;;;;;;9.63;4.38;;;4.00;99.90;;;;;;5052871;28;20023;-71
2021/03/19 00:20:42;;;;;;;8.65;4.53;;;4.10;99.90;;;;;;5053003;28;20029;-71
2021/03/19 00:23:09;;;;;;;10.07;4.35;;;4.00;99.90;;;;;;5052784;28;20128;-71
2021/03/19 00:25:35;;;;;;;15.52;5.38;;;4.00;99.90;;;;;;5062547;28;20032;-71
2021/03/19 00:28:03;;;;;;;9.35;5.05;;;3.90;99.90;;;;;;5062351;28;20025;-71
2021/03/19 00:30:29;;;;;;;9.50;5.15;;;3.90;99.90;;;;;;5071817;28;20037;-71
2021/03/19 00:32:55;;;;;;;8.05;4.78;;;4.00;99.90;;;;;;5072296;28;20365;-71
2021/03/19 00:35:20;;;;;;;10.88;4.50;;;4.00;99.90;;;;;;5072766;28;20073;-71
2021/03/19 00:37:46;;;;;;;5.07;4.45;;;4.00;99.90;;;;;;5072646;28;20017;-71
2021/03/19 00:40:14;;;;;;;8.18;4.80;;;4.00;99.90;;;;;;5072751;28;20400;-71
2021/03/19 00:42:41;;;;;;;8.20;4.40;;;3.90;99.90;;;;;;5062918;28;20056;-71
2021/03/19 00:45:09;;;;;;;7.20;4.70;;;3.90;99.90;;;;;;5072755;28;20029;-71
2021/03/19 00:47:35;;;;;;;11.52;5.80;;;3.90;99.90;;;;;;5072005;28;20034;-71
2021/03/19 00:50:03;;;;;;;7.10;4.80;;;3.80;99.90;;;;;;5072754;28;20025;-71
2021/03/19 00:52:29;;;;;;;8.25;4.18;;;3.80;99.90;;;;;;5072003;28;20020;-71
2021/03/19 00:54:54;;;;;;;7.90;4.35;;;3.80;99.90;;;;;;5072175;28;20507;-71
2021/03/19 00:57:20;;;;;;;7.82;4.20;;;3.80;99.90;;;;;;5068162;28;20363;-71
2021/03/19 00:59:46;;;;;;;7.03;4.53;;;3.90;99.90;;;;;;5052459;28;20053;-71
2021/03/19 01:02:11;;;;;;;9.38;4.53;;;3.90;99.90;;;;;;5052153;28;20115;-71
2021/03/19 01:04:37;;;;;;;6.78;4.80;;;3.80;99.90;;;;;;5052481;28;20064;-71
2021/03/19 01:07:03;;;;;;;12.25;5.22;;;3.80;99.90;;;;;;5052138;28;20485;-71
2021/03/19 01:09:29;;;;;;;6.60;4.03;;;3.80;99.90;;;;;;5052403;28;20112;-71
2021/03/19 01:11:55;;;;;;;8.68;4.25;;;3.80;99.90;;;;;;5052130;28;20017;-71
2021/03/19 01:14:20;;;;;;;8.10;4.00;;;3.70;99.90;;;;;;5068478;28;20043;-71
2021/03/19 01:16:46;;;;;;;8.43;4.88;;;3.70;99.90;;;;;;5074115;28;20040;-71
2021/03/19 01:19:12;;;;;;;9.73;4.50;;;3.80;99.90;;;;;;5070295;28;20079;-71
2021/03/19 01:21:38;;;;;;;9.40;4.40;;;3.80;99.90;;;;;;5067611;28;20040;-71
2021/03/19 01:24:04;;;;;;;5.32;4.63;;;3.90;99.90;;;;;;5075575;28;20025;-71
2021/03/19 01:26:30;;;;;;;8.27;4.55;;;3.80;99.90;;;;;;5074994;28;20020;-71
2021/03/19 01:28:56;;;;;;;6.15;4.35;;;3.80;99.90;;;;;;5073023;28;20520;-71
2021/03/19 01:31:22;;;;;;;8.45;5.53;;;3.80;99.90;;;;;;5069906;28;20032;-71
2021/03/19 01:33:47;;;;;;;6.13;4.85;;;3.80;99.90;;;;;;5075835;28;20028;-71
2021/03/19 01:36:13;;;;;;;13.32;5.72;;;3.70;99.90;;;;;;5075857;28;20028;-71
2021/03/19 01:38:40;;;;;;;6.97;4.28;;;3.70;99.90;;;;;;5075589;28;20063;-71
2021/03/19 01:41:06;;;;;;;7.88;4.78;;;3.60;99.90;;;;;;5074571;28;20016;-71
2021/03/19 01:44:05;;;;;;;8.85;4.75;;;3.70;99.90;;;;;;5075425;28;20025;-71
2021/03/19 01:47:08;;;;;;;10.10;4.80;;;3.70;99.90;;;;;;5075656;28;20103;-71
2021/03/19 01:50:11;;;;;;;11.23;4.88;;;3.60;99.90;;;;;;5075289;28;20036;-71
2021/03/19 01:53:14;;;;;;;9.63;5.20;;;3.70;99.90;;;;;;5075458;28;20024;-71
2021/03/19 01:56:17;;;;;;;9.57;5.70;;;3.70;99.90;;;;;;5075500;28;20044;-71
2021/03/19 01:59:20;;;;;;;11.18;5.50;;;3.70;99.90;;;;;;5075365;28;20017;-71
2021/03/19 02:02:22;;;;;;;8.98;5.10;;;3.70;99.90;;;;;;5075442;28;20020;-71
2021/03/19 02:05:25;;;;;;;9.57;5.95;;;3.60;99.90;;;;;;5074880;28;20743;-71
2021/03/19 02:08:28;;;;;;;9.82;5.32;;;3.60;99.90;;;;;;5075399;28;20103;-71
2021/03/19 02:11:31;;;;;;;5.82;4.25;;;3.70;99.90;;;;;;5055417;28;20048;-71
2021/03/19 02:14:34;;;;;;;8.45;5.30;;;3.80;99.90;;;;;;5069701;28;20492;-71
2021/03/19 02:17:37;;;;;;;5.88;4.07;;;3.80;99.90;;;;;;5070573;28;20040;-71
2021/03/19 02:20:40;;;;;;;5.97;4.25;;;3.70;99.90;;;;;;5054790;28;20347;-71
2021/03/19 02:23:43;;;;;;;11.23;5.95;;;3.70;99.90;;;;;;5055226;28;20029;-71
2021/03/19 02:26:53;;;;;;;9.55;5.65;;;3.70;99.90;;;;;;5055117;28;20021;-71
2021/03/19 02:29:56;;;;;;;8.27;4.50;;;3.70;99.90;;;;;;5031171;28;20103;-71
2021/03/19 02:32:27;;;;;;;8.13;4.90;;;3.70;99.90;;;;;;5012987;28;20029;-71
2021/03/19 02:35:01;;;;;;;9.10;6.03;;;3.60;99.90;;;;;;5000517;28;20430;-71
2021/03/19 02:37:31;;;;;;;9.48;4.63;;;3.60;99.90;;;;;;4993338;28;20038;-71
2021/03/19 02:39:57;;;;;;;7.03;4.47;;;3.60;99.90;;;;;;5004553;28;20241;-71
2021/03/19 02:42:29;;;;;;;8.98;6.18;;;3.60;99.90;;;;;;5032568;28;20492;-71
2021/03/19 02:44:56;;;;;;;8.90;5.18;;;3.60;99.90;;;;;;5032745;28;20525;-71
2021/03/19 02:47:22;;;;;;;9.07;5.30;;;3.60;99.90;;;;;;5032182;28;20045;-71
2021/03/19 02:49:48;;;;;;;11.45;4.75;;;3.60;99.90;;;;;;5032321;28;20513;-71
2021/03/19 02:52:15;;;;;;;7.28;5.10;;;3.60;99.90;;;;;;5032404;28;20076;-71
2021/03/19 02:54:41;;;;;;;6.00;4.45;;;3.50;99.90;;;;;;5032144;28;20448;-71
2021/03/19 02:57:07;;;;;;;8.70;5.03;;;3.60;99.90;;;;;;5019082;28;20040;-71
2021/03/19 02:59:33;;;;;;;6.35;3.97;;;3.60;99.90;;;;;;5027466;28;20081;-71
2021/03/19 03:01:59;;;;;;;9.50;4.93;;;3.60;99.90;;;;;;5031901;28;20069;-71
2021/03/19 03:04:25;;;;;;;7.80;6.15;;;3.70;99.90;;;;;;5015462;28;20124;-71
2021/03/19 03:06:56;;;;;;;6.70;4.57;;;3.80;99.90;;;;;;5066917;28;20048;-71
2021/03/19 03:09:26;;;;;;;6.93;4.30;;;3.80;99.90;;;;;;5073433;28;20032;-71
2021/03/19 03:11:52;;;;;;;;;;;3.80;99.90;;;;;;5066834;28;20025;-71
2021/03/19 03:14:22;;;;;;;8.35;4.75;;;3.70;99.90;;;;;;5063464;28;19905;-71
2021/03/19 03:16:48;;;;;;;6.47;4.28;;;3.70;99.90;;;;;;5073382;28;20036;-71
2021/03/19 03:19:18;;;;;;;10.60;4.43;;;3.70;99.90;;;;;;5073764;28;20045;-71
2021/03/19 03:21:45;;;;;;;9.27;4.95;;;3.70;99.90;;;;;;5073564;28;20012;-71
2021/03/19 03:24:12;;;;;;;5.20;4.13;;;3.70;99.90;;;;;;5072652;28;20241;-71
2021/03/19 03:26:39;;;;;;;9.98;4.28;;;3.60;99.90;;;;;;5073548;28;20465;-71
2021/03/19 03:29:08;;;;;;;6.63;4.50;;;3.70;99.90;;;;;;5071654;28;20432;-71
2021/03/19 03:31:34;;;;;;;8.38;4.93;;;3.60;99.90;;;;;;5073214;28;20029;-71
2021/03/19 03:33:59;;;;;;;10.05;4.95;;;3.70;99.90;;;;;;5073682;28;20029;-71
2021/03/19 03:36:25;;;;;;;7.18;4.32;;;3.60;99.90;;;;;;5073627;28;20503;-71
2021/03/19 03:38:51;;;;;;;6.38;4.32;;;3.70;99.90;;;;;;5072228;28;20029;-71
2021/03/19 03:41:22;;;;;;;5.63;4.13;;;3.70;99.90;;;;;;5073388;28;20029;-71
2021/03/19 03:43:48;;;;;;;7.57;4.68;;;3.70;99.90;;;;;;5073431;28;20032;-71
2021/03/19 03:46:18;;;;;;;9.20;4.97;;;3.70;99.90;;;;;;5073307;28;20044;-71
2021/03/19 03:48:44;;;;;;;9.30;4.75;;;3.70;99.90;;;;;;5073026;28;20199;-71
2021/03/19 03:51:11;;;;;;;7.55;4.65;;;3.70;99.90;;;;;;5073586;28;20042;-71
2021/03/19 03:53:38;;;;;;;10.25;4.40;;;3.80;99.90;;;;;;5073331;28;20066;-71
2021/03/19 03:56:07;;;;;;;7.40;4.10;;;3.60;99.90;;;;;;5069669;28;20033;-71
2021/03/19 03:58:32;;;;;;;7.03;3.78;;;3.60;99.90;;;;;;5072898;28;20021;-71
2021/03/19 04:00:58;;;;;;;5.53;4.80;;;3.60;99.90;;;;;;5072902;28;20433;-71
2021/03/19 04:03:24;;;;;;;7.95;4.43;;;3.50;99.90;;;;;;5073173;28;20032;-71
2021/03/19 04:05:51;;;;;;;9.00;4.10;;;3.50;99.90;;;;;;5072997;28;20507;-71
2021/03/19 04:08:25;;;;;;;9.52;4.72;;;3.40;99.90;;;;;;5073219;28;20026;-71
2021/03/19 04:10:53;;;;;;;12.73;5.80;;;3.40;99.90;;;;;;5072903;28;20131;-71
2021/03/19 04:13:20;;;;;;;7.65;4.07;;;3.30;99.90;;;;;;5072345;28;20029;-71
2021/03/19 04:15:48;;;;;;;8.45;4.40;;;3.30;99.90;;;;;;5072811;28;20487;-71
2021/03/19 04:18:14;;;;;;;13.80;4.85;;;3.20;99.90;;;;;;5073204;28;20021;-70
2021/03/19 04:20:45;;;;;;;9.85;5.20;;;3.20;99.90;;;;;;5073005;28;20074;-71
2021/03/19 04:23:12;;;;;;;10.77;4.72;;;3.20;99.90;;;;;;5072969;28;20461;-71
2021/03/19 04:25:38;;;;;;;8.20;4.78;;;3.20;99.90;;;;;;5072572;28;20027;-71
2021/03/19 04:28:08;;;;;;;10.00;5.18;;;3.20;99.90;;;;;;5072126;28;20029;-71
2021/03/19 04:30:40;;;;;;;6.03;4.28;;;3.10;99.90;;;;;;5070869;28;20153;-71
2021/03/19 04:33:07;;;;;;;7.30;5.38;;;3.10;99.90;;;;;;5072865;28;20111;-71
2021/03/19 04:35:34;;;;;;;7.88;5.20;;;3.10;99.90;;;;;;5072827;28;20031;-71
2021/03/19 04:38:05;;;;;;;10.10;4.75;;;3.10;99.90;;;;;;5072610;28;20020;-70
2021/03/19 04:40:31;;;;;;;12.07;4.28;;;3.10;99.90;;;;;;5071544;28;20369;-71
2021/03/19 04:42:59;;;;;;;7.25;4.30;;;3.10;99.90;;;;;;5072683;28;20037;-71
2021/03/19 04:45:26;;;;;;;9.95;4.97;;;3.10;99.90;;;;;;5072545;28;20528;-71
2021/03/19 04:47:53;;;;;;;7.68;4.40;;;3.10;99.90;;;;;;5072577;28;20028;-71
2021/03/19 04:50:21;;;;;;;9.23;4.22;;;3.10;99.90;;;;;;5072844;28;20021;-71
2021/03/19 04:52:47;;;;;;;9.55;5.25;;;3.20;99.90;;;;;;5076769;28;20426;-71
2021/03/19 04:55:13;;;;;;;14.15;5.78;;;3.20;99.90;;;;;;5073973;28;20103;-71
2021/03/19 04:57:39;;;;;;;8.40;5.45;;;3.10;99.90;;;;;;5075769;28;20028;-71
2021/03/19 05:00:08;;;;;;;9.00;4.78;;;3.20;99.90;;;;;;5057737;28;20167;-71
2021/03/19 05:02:36;;;;;;;9.05;4.05;;;3.20;99.90;;;;;;5056648;28;20037;-71
2021/03/19 05:05:04;;;;;;;7.45;3.88;;;3.10;99.90;;;;;;5056474;28;20033;-71
2021/03/19 05:07:30;;;;;;;7.80;4.22;;;3.10;99.90;;;;;;5056418;28;20110;-71
2021/03/19 05:09:56;;;;;;;6.82;4.00;;;3.00;99.90;;;;;;5062794;28;20082;-71
2021/03/19 05:12:21;;;;;;;6.43;4.00;;;3.10;99.90;;;;;;5071735;28;20107;-71
2021/03/19 05:14:47;;;;;;;11.35;3.88;;;3.20;99.90;;;;;;5076109;28;20516;-71
2021/03/19 05:17:14;;;;;;;9.32;4.00;;;3.10;99.90;;;;;;5076320;28;20550;-71
2021/03/19 05:19:39;;;;;;;12.10;4.70;;;3.00;99.90;;;;;;5076247;28;20052;-70
2021/03/19 05:22:06;;;;;;;8.48;4.00;;;3.00;99.90;;;;;;5075953;28;20169;-71
2021/03/19 05:24:32;;;;;;;7.97;4.75;;;3.00;99.90;;;;;;5076256;28;20032;-70
2021/03/19 05:26:57;;;;;;;8.23;3.83;;;3.00;99.90;;;;;;5075599;28;20028;-70
2021/03/19 05:29:23;;;;;;;8.02;4.50;;;3.00;99.90;;;;;;5074412;28;20044;-71
2021/03/19 05:31:49;;;;;;;6.82;4.43;;;3.00;99.90;;;;;;5075675;28;20418;-71
2021/03/19 05:34:15;;;;;;;6.50;3.55;;;3.00;99.90;;;;;;5075325;28;20384;-71
2021/03/19 05:36:41;;;;;;;10.18;4.20;;;3.00;99.90;;;;;;5075690;28;20048;-71
2021/03/19 05:39:08;;;;;;;8.07;3.65;;;2.90;99.90;;;;;;5074494;28;20032;-71
2021/03/19 05:41:37;;;;;;;6.82;3.45;;;2.90;99.90;;;;;;5072928;28;20036;-71
2021/03/19 05:44:06;;;;;;;12.05;5.00;;;2.90;99.90;;;;;;5075390;28;20511;-71
2021/03/19 05:46:34;;;;;;;12.30;4.65;;;3.00;99.90;;;;;;5075644;28;20481;-71
2021/03/19 05:49:13;;;;;;;7.65;3.88;;;3.00;99.90;;;;;;5075641;28;20028;-71
2021/03/19 05:51:54;;;;;;;8.52;3.75;;;2.90;99.90;;;;;;5074403;28;20079;-71
2021/03/19 05:54:25;;;;;;;6.20;4.00;;;2.90;99.90;;;;;;5075613;28;20060;-71
2021/03/19 05:57:17;;;;;;;11.45;4.18;;;2.80;99.90;;;;;;5074895;28;20036;-71
2021/03/19 05:59:47;;;;;;;9.82;3.95;;;2.80;99.90;;;;;;5072080;28;20051;-71
2021/03/19 06:02:25;;;;;;;10.85;3.90;;;2.90;99.90;;;;;;5074804;28;20372;-71
2021/03/19 06:05:11;;;;;;;12.68;4.15;;;2.80;99.90;;;;;;5061310;28;20083;-71
2021/03/19 06:07:53;;;;;;;8.57;4.20;;;2.80;99.90;;;;;;5073421;28;20385;-70
2021/03/19 06:10:41;;;;;;;13.70;5.22;;;2.80;99.90;;;;;;5075994;28;20028;-70
2021/03/19 06:13:11;;;;;;;10.18;4.57;;;2.80;99.90;;;;;;5057480;28;20037;-71
2021/03/19 06:15:55;;;;;;;12.25;5.57;;;2.90;99.90;;;;;;5071516;28;20081;-71
2021/03/19 06:18:39;;;;;;;10.27;4.72;;;2.80;99.90;;;;;;5065501;28;20025;-71
2021/03/19 06:21:20;;;;;;;9.35;4.15;;;2.80;99.90;;;;;;5068851;28;20029;-71
2021/03/19 06:24:23;;;;;;;12.88;4.68;;;2.90;99.90;;;;;;5056613;28;20377;-71
2021/03/19 06:26:51;;;;;;;9.23;4.80;;;2.80;99.90;;;;;;5050070;28;20040;-71
2021/03/19 06:29:28;;;;;;;11.00;3.67;;;2.90;99.90;;;;;;5036222;28;20438;-71
2021/03/19 06:32:14;;;;;;;10.18;4.75;;;2.80;99.90;;;;;;5043904;28;20083;-71
2021/03/19 06:34:58;;;;;;;10.90;4.95;;;2.80;99.90;;;;;;5043090;28;20452;-71
2021/03/19 06:37:49;;;;;;;8.73;5.25;;;2.90;99.90;;;;;;5033519;28;20041;-71
2021/03/19 06:40:29;;;;;;;9.43;4.60;;;3.00;99.90;;;;;;5045028;28;20033;-71
2021/03/19 06:43:29;;;;;;;8.68;4.53;;;3.10;99.90;;;;;;5039170;28;20641;-71
2021/03/19 06:46:11;;;;;;;6.00;3.92;;;2.90;99.90;;;;;;5032423;28;20575;-71
2021/03/19 06:48:57;;;;;;;6.30;4.28;;;2.80;99.90;;;;;;5032327;28;20037;-71
2021/03/19 06:51:25;;;;;;;8.63;4.03;;;2.70;99.90;;;;;;5022586;28;20048;-71
2021/03/19 06:53:59;;;;;;;7.03;4.38;;;2.70;99.90;;;;;;5032162;28;20351;-71
2021/03/19 06:56:25;;;;;;;8.75;4.38;;;2.70;99.90;;;;;;5032185;28;20052;-71
2021/03/19 06:58:51;;;;;;;7.53;3.95;;;2.70;99.90;;;;;;5032368;28;20034;-71
2021/03/19 07:01:23;;;;;;;7.07;4.18;;;2.80;99.90;;;;;;5033645;28;20021;-71
2021/03/19 07:04:13;;;;;;;8.80;4.60;;;2.70;99.90;;;;;;5053979;28;20040;-71
2021/03/19 07:06:41;;;;;;;;;;;2.70;99.90;;;;;;5061643;28;20111;-72
2021/03/19 07:09:41;;;;;;;7.55;3.47;;;2.70;99.90;;;;;;5052753;28;19909;-72
2021/03/19 07:12:07;;;;;;;7.47;3.88;;;2.70;99.90;;;;;;5070308;28;20031;-72
2021/03/19 07:14:48;;;;;;;7.07;4.05;;;2.60;99.90;;;;;;5063803;28;20029;-72
2021/03/19 07:17:50;;;;;;;6.75;4.13;;;2.70;99.90;;;;;;5059766;28;20028;-72
2021/03/19 07:20:57;;;;;;;7.15;3.92;;;2.80;99.90;;;;;;5070507;28;20029;-72
2021/03/19 07:23:30;;;;;;;6.38;4.18;;;2.90;99.90;;;;;;5032918;28;20497;-72
2021/03/19 07:26:16;;;;;;;7.97;3.38;;;2.90;99.90;;;;;;5053898;28;20031;-72
2021/03/19 07:29:26;;;;;;;3.95;3.28;;;3.00;99.90;;;;;;5052949;28;20517;-72
2021/03/19 07:32:15;;;;;;;7.18;2.83;;;3.00;99.90;;;;;;5068746;28;20036;-72
2021/03/19 07:35:03;;;;;;;6.45;3.17;;;3.10;99.90;;;;;;5073423;28;20035;-72
2021/03/19 07:37:40;;;;;;;3.75;3.05;;;3.20;99.90;;;;;;5072824;28;20112;-72
2021/03/19 07:40:36;;;;;;;8.05;4.32;;;3.20;99.90;;;;;;5072932;28;20034;-72
2021/03/19 07:43:19;;;;;;;4.38;2.90;;;3.10;99.90;;;;;;5073337;28;20068;-72
2021/03/19 07:46:03;;;;;;;6.35;2.95;;;3.20;99.90;;;;;;5072953;28;20042;-72
2021/03/19 07:48:47;;;;;;;4.45;3.03;;;3.20;99.90;;;;;;5072873;28;20111;-72
2021/03/19 07:51:48;;;;;;;2.72;2.42;;;3.20;99.90;;;;;;5072851;28;20081;-72
2021/03/19 07:54:22;;;;;;;2.92;2.38;;;3.20;99.90;;;;;;5072759;28;20025;-72
2021/03/19 07:57:10;;;;;;;5.93;3.42;;;3.20;99.90;;;;;;5072953;28;20094;-72
2021/03/19 08:00:00;;;;;;;4.22;2.75;;;3.20;99.90;;;;;;5072834;28;20411;-72
2021/03/19 08:02:48;;;;;;;5.75;2.65;;;3.20;99.90;;;;;;5072552;28;20112;-72
2021/03/19 08:05:13;;;;;;;5.82;2.90;;;3.20;99.90;;;;;;5072424;28;20481;-72
2021/03/19 08:07:54;;;;;;;2.90;2.60;;;3.20;99.90;;;;;;5072217;28;20040;-72
2021/03/19 08:10:29;;;;;;;5.07;2.55;;;3.40;99.90;;;;;;5072412;28;20029;-72
2021/03/19 08:13:04;;;;;;;4.53;2.53;;;3.30;99.90;;;;;;5072625;28;20078;-72
2021/03/19 08:15:42;;;;;;;2.92;1.98;;;3.30;99.90;;;;;;5072587;28;20028;-72
2021/03/19 08:18:15;;;;;;;2.38;2.05;;;3.40;99.90;;;;;;5072527;28;20020;-72
2021/03/19 08:20:43;;;;;;;2.92;2.17;;;3.20;99.90;;;;;;5072064;28;20500;-73
2021/03/19 08:23:24;;;;;;;3.58;2.33;;;3.40;99.90;;;;;;5072503;28;20116;-72
2021/03/19 08:25:52;;;;;;;3.33;2.10;;;3.30;99.90;;;;;;5072037;28;20033;-72
2021/03/19 08:28:31;;;;;;;2.53;2.20;;;3.30;99.90;;;;;;5072098;28;20029;-72
2021/03/19 08:31:17;;;;;;;3.30;2.10;;;3.30;99.90;;;;;;5072501;28;20111;-72
2021/03/19 08:33:43;;;;;;;2.25;2.05;;;3.30;99.90;;;;;;5072315;28;20103;-72
2021/03/19 08:36:34;;;;;;;3.17;2.88;;;3.40;99.90;;;;;;5072073;28;20103;-72
2021/03/19 08:39:06;;;;;;;2.30;1.77;;;3.40;99.90;;;;;;5072157;28;20473;-72
2021/03/19 08:41:40;;;;;;;2.50;2.30;;;3.60;99.90;;;;;;5072472;28;20029;-72
2021/03/19 08:44:11;;;;;;;3.63;2.10;;;3.60;99.90;;;;;;5072202;28;20021;-72
2021/03/19 08:47:02;;;;;;;2.63;2.30;;;3.50;99.90;;;;;;5072212;28;20469;-72
2021/03/19 08:49:44;;;;;;;3.20;2.90;;;3.70;99.90;;;;;;5071976;28;20032;-72
2021/03/19 08:52:37;;;;;;;4.55;3.03;;;3.60;99.90;;;;;;5072239;28;20029;-72
2021/03/19 08:55:12;;;;;;;3.28;2.55;;;3.70;99.90;;;;;;5067722;28;20489;-72
2021/03/19 08:57:44;;;;;;;3.47;2.67;;;3.80;99.90;;;;;;5071941;28;20024;-72
2021/03/19 09:00:35;;;;;;;3.75;2.83;;;3.80;99.90;;;;;;5072110;28;20028;-72
2021/03/19 09:03:11;;;;;;;4.28;2.67;;;3.90;99.90;;;;;;5072155;28;20029;-72
2021/03/19 09:06:04;;;;;;;4.47;2.67;;;3.90;99.90;;;;;;5071774;28;20036;-72
2021/03/19 09:08:55;;;;;;;3.85;2.63;;;3.80;99.90;;;;;;5071673;28;20039;-72
2021/03/19 09:11:42;;;;;;;2.72;2.47;;;3.70;99.90;;;;;;5071951;28;20029;-72
2021/03/19 09:14:08;;;;;;;3.40;2.55;;;3.80;99.90;;;;;;5071869;28;20028;-72
2021/03/19 09:16:40;;;;;;;3.72;2.20;;;3.70;99.90;;;;;;5071742;28;20028;-72
2021/03/19 09:19:43;;;;;;;2.20;2.00;;;3.50;99.90;;;;;;5071578;28;20111;-72
2021/03/19 09:22:21;;;;;;;2.85;2.58;;;3.50;99.90;;;;;;5010019;28;20026;-72
2021/03/19 09:25:11;;;;;;;3.42;2.63;;;3.50;99.90;;;;;;5010131;28;20084;-72
2021/03/19 09:27:44;;;;;;;4.05;2.83;;;3.40;99.90;;;;;;5010039;28;20034;-72
2021/03/19 09:30:29;;;;;;;2.83;1.95;;;3.50;99.90;;;;;;5009599;28;20401;-72
2021/03/19 09:32:57;;;;;;;4.30;2.05;;;3.60;99.90;;;;;;5010123;28;20538;-72
2021/03/19 09:35:37;;;;;;;3.88;1.88;;;3.30;99.90;;;;;;5009607;28;20053;-71
2021/03/19 09:38:26;;;;;;;2.53;2.03;;;3.20;99.90;;;;;;5012642;28;20536;-72
2021/03/19 09:41:00;;;;;;;2.85;1.77;;;3.20;99.90;;;;;;5006902;28;20057;-72
2021/03/19 09:43:40;;;;;;;3.03;2.05;;;3.10;99.90;;;;;;5013351;28;20066;-72
2021/03/19 09:46:26;;;;;;;2.65;2.45;;;3.00;99.90;;;;;;5013454;28;20026;-72
2021/03/19 09:49:08;;;;;;;2.95;2.42;;;3.30;99.90;;;;;;5012984;28;20058;-72
2021/03/19 09:51:41;;;;;;;2.45;2.25;;;3.50;99.90;;;;;;5013348;28;20038;-72
2021/03/19 09:54:29;;;;;;;2.95;2.58;;;3.70;99.90;;;;;;5013411;28;20030;-72
2021/03/19 09:57:00;;;;;;;2.53;2.22;;;3.80;99.90;;;;;;5065191;28;20048;-72
2021/03/19 09:59:35;;;;;;;3.33;2.35;;;4.00;99.90;;;;;;5074989;28;20104;-72
2021/03/19 10:02:02;;;;;;;2.67;1.58;;;4.00;99.90;;;;;;5074898;28;20036;-72
2021/03/19 10:04:37;;;;;;;2.08;1.73;;;3.70;99.90;;;;;;5074884;28;20032;-72
2021/03/19 10:07:14;;;;;;;2.13;1.92;;;3.80;99.90;;;;;;5074892;28;20519;-72
2021/03/19 10:09:40;;;;;;;2.13;1.95;;;3.90;99.90;;;;;;5074549;28;20120;-72
2021/03/19 10:12:27;;;;;;;1.80;1.70;;;4.00;99.90;;;;;;5074894;28;20112;-72
2021/03/19 10:14:56;;;;;;;1.98;1.65;;;3.90;99.90;;;;;;5074751;28;20029;-72
2021/03/19 10:17:24;;;;;;;2.42;1.67;;;4.00;99.90;;;;;;5074293;28;20082;-72
2021/03/19 10:20:00;;;;;;;2.25;1.83;;;4.10;99.90;;;;;;5074732;28;20055;-71
2021/03/19 10:22:40;;;;;;;1.80;1.70;;;3.90;99.90;;;;;;5074473;28;20032;-72
2021/03/19 10:25:25;;;;;;;;;;;3.90;99.90;;;;;;5074987;28;20392;-72
2021/03/19 10:27:54;;;;;;;1.90;1.70;;;4.10;99.90;;;;;;5074605;28;19958;-72
2021/03/19 10:30:48;;;;;;;1.38;1.27;;;4.20;99.90;;;;;;5073878;28;20473;-72
2021/03/19 10:33:45;;;;;;;1.30;1.20;;;4.10;99.90;;;;;;5074180;28;20021;-72
2021/03/19 10:36:19;;;;;;;2.55;1.58;;;4.00;99.90;;;;;;5071088;28;20039;-72
2021/03/19 10:38:56;;;;;;;3.58;1.40;;;4.00;99.90;;;;;;5074449;28;20029;-72
2021/03/19 10:41:22;;;;;;;1.30;1.20;;;3.50;99.90;;;;;;5074056;28;20029;-72
2021/03/19 10:43:57;;;;;;;1.30;1.00;;;3.80;99.90;;;;;;5074055;28;20028;-72
2021/03/19 10:46:26;;;;;;;3.80;1.27;;;3.70;99.90;;;;;;5073724;28;20104;-72
2021/03/19 10:48:58;;;;;;;1.33;1.23;;;3.70;99.90;;;;;;5073957;28;20083;-72
2021/03/19 10:51:32;;;;;;;2.58;1.20;;;3.60;99.90;;;;;;5073896;28;20027;-72
2021/03/19 10:54:02;;;;;;;1.38;1.27;;;3.70;99.90;;;;;;5074006;28;20024;-72
2021/03/19 10:56:28;;;;;;;1.13;0.90;;;3.80;99.90;;;;;;5073922;28;20063;-72
2021/03/19 10:59:10;;;;;;;0.90;0.90;;;3.60;99.90;;;;;;5073880;28;20028;-72
2021/03/19 11:01:47;;;;;;;2.38;1.35;;;3.50;99.90;;;;;;5073389;28;20056;-72
2021/03/19 11:04:38;;;;;;;3.08;1.05;;;3.50;99.90;;;;;;5073964;28;20115;-71
2021/03/19 11:07:25;;;;;;;1.40;0.90;;;3.50;99.90;;;;;;5073824;28;20027;-72
2021/03/19 11:10:09;;;;;;;0.98;0.90;;;3.50;99.90;;;;;;5073453;28;20400;-72
2021/03/19 11:12:48;;;;;;;0.85;0.85;;;3.90;99.90;;;;;;5073467;28;20059;-72
2021/03/19 11:15:38;;;;;;;1.08;0.90;;;3.90;99.90;;;;;;5073261;28;20473;-72
2021/03/19 11:18:35;;;;;;;1.30;1.20;;;3.90;99.90;;;;;;5073445;28;20411;-72
2021/03/19 11:21:20;;;;;;;0.90;0.90;;;3.90;99.90;;;;;;5073379;28;20036;-72
2021/03/19 11:24:00;;;;;;;1.20;1.10;;;4.10;99.90;;;;;;5073194;28;20032;-72
2021/03/19 11:26:30;;;;;;;1.05;0.95;;;3.90;99.90;;;;;;5073324;28;20043;-72
2021/03/19 11:29:17;;;;;;;0.95;0.90;;;3.70;99.90;;;;;;5072963;28;20451;-72
2021/03/19 11:32:02;;;;;;;1.40;1.10;;;3.60;99.90;;;;;;5073017;28;20222;-71
2021/03/19 11:34:48;;;;;;;0.98;0.93;;;3.70;99.90;;;;;;5071647;28;20507;-72
2021/03/19 11:37:23;;;;;;;0.80;0.80;;;3.60;99.90;;;;;;5073100;28;20069;-72
2021/03/19 11:40:03;;;;;;;0.90;0.90;;;3.50;99.90;;;;;;5073084;28;20031;-72
2021/03/19 11:42:31;;;;;;;0.85;0.80;;;3.50;99.90;;;;;;5073035;28;20029;-72
2021/03/19 11:45:03;;;;;;;1.00;0.90;;;3.50;99.90;;;;;;5072739;28;20043;-72
2021/03/19 11:47:35;;;;;;;0.90;0.90;;;3.50;99.90;;;;;;5072845;28;20036;-72
2021/03/19 11:50:30;;;;;;;0.85;0.85;;;3.40;99.90;;;;;;5072927;28;20111;-72
2021/03/19 11:53:06;;;;;;;0.85;0.85;;;3.40;99.90;;;;;;5073012;28;20035;-72
2021/03/19 11:55:41;;;;;;;1.20;1.10;;;3.40;99.90;;;;;;5071502;28;20061;-72
2021/03/19 11:58:09;;;;;;;2.03;1.20;;;3.60;99.90;;;;;;5072491;28;20024;-72
2021/03/19 12:00:37;;;;;;;1.50;1.15;;;3.60;99.90;;;;;;5072063;28;20085;-72
2021/03/19 12:03:08;;;;;;;1.10;1.00;;;3.60;99.90;;;;;;5071526;28;20036;-72
2021/03/19 12:05:35;;;;;;;1.30;1.20;;;3.50;99.90;;;;;;5072732;28;20028;-72
2021/03/19 12:08:00;;;;;;;1.00;1.00;;;3.60;99.90;;;;;;5072773;28;20033;-71
2021/03/19 12:10:29;;;;;;;1.10;1.00;;;3.70;99.90;;;;;;5072542;28;20039;-72
2021/03/19 12:13:01;;;;;;;1.08;0.95;;;3.70;99.90;;;;;;5072367;28;20091;-72
2021/03/19 12:15:29;;;;;;;0.93;0.93;;;3.60;99.90;;;;;;5072596;28;20103;-72
2021/03/19 12:17:55;;;;;;;1.40;1.27;;;3.80;99.90;;;;;;5072591;28;20033;-72
2021/03/19 12:20:21;;;;;;;1.13;1.02;;;3.90;99.90;;;;;;5072744;28;20155;-72
2021/03/19 12:22:47;;;;;;;0.90;0.90;;;4.00;99.90;;;;;;5072345;28;20111;-72
2021/03/19 12:25:36;;;;;;;1.27;1.17;;;4.10;99.90;;;;;;5072413;28;20028;-72
2021/03/19 12:28:01;;;;;;;2.22;1.30;;;3.90;99.90;;;;;;5072141;28;20024;-72
2021/03/19 12:30:27;;;;;;;1.42;0.90;;;3.70;99.90;;;;;;5072027;28;20051;-72
2021/03/19 12:32:54;;;;;;;1.30;1.20;;;3.70;99.90;;;;;;5072370;28;20106;-72
2021/03/19 12:35:22;;;;;;;2.60;2.25;;;3.60;99.90;;;;;;5072447;28;20031;-72
2021/03/19 12:37:51;;;;;;;1.02;0.95;;;3.70;99.90;;;;;;5072277;28;20032;-72
2021/03/19 12:40:17;;;;;;;2.35;1.80;;;3.70;99.90;;;;;;5072447;28;20040;-72
2021/03/19 12:42:43;;;;;;;1.20;1.10;;;3.80;99.90;;;;;;5071889;28;20411;-72
2021/03/19 12:45:09;;;;;;;1.17;1.05;;;3.70;99.90;;;;;;5072167;28;20037;-72
2021/03/19 12:47:35;;;;;;;0.95;0.95;;;3.60;99.90;;;;;;5072204;28;20050;-72
2021/03/19 12:50:03;;;;;;;1.40;1.30;;;3.60;99.90;;;;;;5072093;28;20028;-72
2021/03/19 12:52:28;;;;;;;1.20;1.10;;;3.50;99.90;;;;;;5072390;28;20082;-72
2021/03/19 12:54:54;;;;;;;1.48;1.38;;;3.60;99.90;;;;;;5072206;28;20431;-72
2021/03/19 12:57:20;;;;;;;2.03;1.10;;;3.60;99.90;;;;;;5071801;28;20037;-72
2021/03/19 12:59:45;;;;;;;1.40;1.30;;;3.50;99.90;;;;;;5072041;28;20029;-72
2021/03/19 13:02:11;;;;;;;1.35;1.25;;;3.40;99.90;;;;;;5072262;28;20037;-72
2021/03/19 13:04:37;;;;;;;1.90;1.65;;;3.50;99.90;;;;;;5072025;28;20032;-72
2021/03/19 13:07:07;;;;;;;1.50;1.38;;;3.60;99.90;;;;;;5072123;28;20021;-72
2021/03/19 13:09:33;;;;;;;1.98;1.38;;;3.60;99.90;;;;;;5072095;28;20029;-72
2021/03/19 13:11:59;;;;;;;1.58;1.48;;;3.60;99.90;;;;;;5072884;28;20059;-72
2021/03/19 13:14:25;;;;;;;1.55;1.45;;;3.60;99.90;;;;;;5076142;28;20109;-72
2021/03/19 13:16:51;;;;;;;2.08;1.40;;;3.50;99.90;;;;;;5075849;28;20383;-72
2021/03/19 13:19:17;;;;;;;2.35;1.80;;;3.40;99.90;;;;;;5075787;28;20108;-72
2021/03/19 13:21:43;;;;;;;1.40;1.30;;;3.40;99.90;;;;;;5075427;28;20116;-72
2021/03/19 13:24:09;;;;;;;1.73;1.63;;;3.20;99.90;;;;;;5075812;28;20089;-72
2021/03/19 13:26:35;;;;;;;2.90;1.52;;;3.10;99.90;;;;;;5075211;28;20042;-72
2021/03/19 13:29:01;;;;;;;1.42;1.33;;;3.20;99.90;;;;;;5075263;28;20128;-72
2021/03/19 13:31:26;;;;;;;1.50;1.40;;;3.00;99.90;;;;;;5074088;28;20029;-72
2021/03/19 13:33:52;;;;;;;1.55;1.45;;;3.00;99.90;;;;;;5075375;28;20028;-72
2021/03/19 13:36:18;;;;;;;1.40;1.30;;;3.00;99.90;;;;;;5075607;28;20028;-72